Time;durP1;ratioP1;P1;durP2;ratioP2;P2;SDS_P1;SDS_P2;PMS_P1;PMS_P2;Temp;Humidity;BMP_temperature;BMP_pressure;BME280_temperature;BME280_humidity;BME280_pressure;Samples;Min_cycle;Max_cycle;Signal;HPM_P1;HPM_P2
2022/01/09 00:00:34;;;;;;;29.40;10.20;;;;;;;-2.16;67.15;99461.66;109098;1277;22928;-68
2022/01/09 00:03:02;;;;;;;25.10;10.50;;;;;;;-2.17;66.86;99457.80;109075;1277;138911;-68
2022/01/09 00:05:30;;;;;;;22.90;9.40;;;;;;;-2.16;66.90;99454.73;109080;1277;22438;-67
2022/01/09 00:07:58;;;;;;;33.40;13.60;;;;;;;-2.16;66.72;99452.02;109090;1277;22458;-68
2022/01/09 00:10:28;;;;;;;17.60;7.90;;;;;;;-2.16;66.82;99450.08;108955;1277;138930;-67
2022/01/09 00:12:57;;;;;;;37.70;13.30;;;;;;;-2.16;66.97;99449.10;109153;1277;22444;-68
2022/01/09 00:15:25;;;;;;;71.00;22.80;;;;;;;-2.16;67.00;99444.30;109037;1277;137704;-66
2022/01/09 00:17:53;;;;;;;20.20;9.50;;;;;;;-2.16;66.78;99441.46;109164;1277;22519;-66
2022/01/09 00:20:21;;;;;;;21.30;9.00;;;;;;;-2.16;66.97;99440.98;109329;1274;138737;-66
2022/01/09 00:22:51;;;;;;;39.20;14.80;;;;;;;-2.15;67.16;99438.59;109420;1273;23795;-66
2022/01/09 00:25:20;;;;;;;18.90;8.50;;;;;;;-2.16;67.10;99434.07;109311;1274;22541;-61
2022/01/09 00:27:48;;;;;;;16.50;8.40;;;;;;;-2.17;67.31;99429.69;109259;1274;137296;-62
2022/01/09 00:30:18;;;;;;;73.30;26.50;;;;;;;-2.18;67.36;99430.23;109377;1272;22478;-61
2022/01/09 00:32:46;;;;;;;20.80;8.90;;;;;;;-2.19;67.30;99426.93;109326;1273;138458;-61
2022/01/09 00:35:14;;;;;;;15.30;7.70;;;;;;;-2.20;67.45;99427.44;109304;1274;22451;-61
2022/01/09 00:37:43;;;;;;;16.00;8.30;;;;;;;-2.20;67.33;99428.80;109404;1273;22455;-61
2022/01/09 00:40:12;;;;;;;13.70;7.00;;;;;;;-2.19;67.33;99427.30;109316;1273;142473;-61
2022/01/09 00:42:39;;;;;;;14.30;8.30;;;;;;;-2.19;67.47;99425.34;109380;1274;22479;-61
2022/01/09 00:45:07;;;;;;;14.80;6.90;;;;;;;-2.20;67.27;99424.43;109291;1274;138102;-61
2022/01/09 00:47:36;;;;;;;17.30;7.40;;;;;;;-2.22;67.56;99422.27;109399;1272;22430;-61
2022/01/09 00:50:04;;;;;;;18.20;8.20;;;;;;;-2.23;67.59;99417.61;109381;1274;22424;-62
2022/01/09 00:52:33;;;;;;;21.00;7.80;;;;;;;-2.21;67.35;99415.84;109352;1273;138672;-61
2022/01/09 00:55:01;;;;;;;44.40;17.80;;;;;;;-2.22;67.71;99405.07;109388;1273;22480;-61
2022/01/09 00:57:29;;;;;;;19.30;8.90;;;;;;;-2.22;67.81;99404.17;109352;1274;138487;-67
2022/01/09 00:59:57;;;;;;;19.80;7.90;;;;;;;-2.21;67.75;99404.23;109442;1273;22513;-67
2022/01/09 01:02:25;;;;;;;26.10;10.50;;;;;;;-2.20;68.00;99399.85;109241;1274;138164;-67
2022/01/09 01:04:53;;;;;;;24.20;7.90;;;;;;;-2.21;67.73;99395.16;109350;1273;23308;-67
2022/01/09 01:07:23;;;;;;;14.50;7.60;;;;;;;-2.20;67.92;99391.15;109349;1274;22429;-67
2022/01/09 01:09:51;;;;;;;14.20;7.00;;;;;;;-2.21;67.89;99383.38;109306;1274;139242;-67
2022/01/09 01:12:29;;;;;;;13.20;7.50;;;;;;;-2.22;68.02;99381.41;109331;1274;23675;-67
2022/01/09 01:15:02;;;;;;;18.90;9.60;;;;;;;-2.25;68.43;99377.43;109335;1274;137372;-67
2022/01/09 01:17:33;;;;;;;23.60;9.80;;;;;;;-2.27;68.43;99371.67;109437;1274;22464;-68
2022/01/09 01:20:01;;;;;;;19.70;8.80;;;;;;;-2.30;68.63;99362.59;109472;1274;22455;-68
2022/01/09 01:22:30;;;;;;;22.10;9.40;;;;;;;-2.34;68.88;99358.08;109206;1274;137779;-68
2022/01/09 01:24:58;;;;;;;14.60;7.40;;;;;;;-2.38;68.99;99352.20;109309;1273;23655;-68
2022/01/09 01:27:26;;;;;;;14.20;6.70;;;;;;;-2.41;69.22;99347.38;109262;1273;138050;-68
2022/01/09 01:29:54;;;;;;;12.60;5.30;;;;;;;-2.43;69.54;99343.66;109327;1274;22466;-68
2022/01/09 01:32:22;;;;;;;13.50;7.00;;;;;;;-2.45;70.07;99342.98;109179;1274;138077;-67
2022/01/09 01:34:51;;;;;;;10.60;5.40;;;;;;;-2.45;70.44;99341.96;109453;1274;23153;-68
2022/01/09 01:37:19;;;;;;;26.20;10.50;;;;;;;-2.45;70.62;99337.39;109312;1274;23432;-67
2022/01/09 01:39:47;;;;;;;13.90;7.40;;;;;;;-2.44;70.69;99331.92;109270;1273;137504;-67
2022/01/09 01:42:15;;;;;;;15.10;8.00;;;;;;;-2.43;70.93;99326.48;109373;1274;23119;-67
2022/01/09 01:44:45;;;;;;;29.00;10.10;;;;;;;-2.44;71.30;99327.39;109298;1274;137446;-67
2022/01/09 01:47:13;;;;;;;16.60;7.70;;;;;;;-2.46;71.30;99322.13;109366;1273;23546;-67
2022/01/09 01:49:41;;;;;;;15.10;8.30;;;;;;;-2.49;71.77;99320.71;109418;1274;22511;-66
2022/01/09 01:52:09;;;;;;;18.50;8.90;;;;;;;-2.54;72.12;99317.84;109197;1274;139041;-66
2022/01/09 01:54:39;;;;;;;12.80;7.00;;;;;;;-2.59;72.91;99310.02;109505;1274;22441;-66
2022/01/09 01:57:09;;;;;;;14.90;7.00;;;;;;;-2.66;73.29;99312.21;109188;1274;138402;-66
2022/01/09 01:59:37;;;;;;;12.30;6.20;;;;;;;-2.72;73.72;99307.55;109294;1274;22446;-65
2022/01/09 02:02:05;;;;;;;13.80;6.00;;;;;;;-2.77;74.44;99303.45;109432;1273;23309;-65
2022/01/09 02:04:33;;;;;;;14.00;6.80;;;;;;;-2.84;74.96;99295.98;109227;1274;138181;-66
2022/01/09 02:07:02;;;;;;;17.50;8.00;;;;;;;-2.87;75.31;99288.73;109381;1273;23116;-65
2022/01/09 02:09:30;;;;;;;33.00;17.20;;;;;;;-2.87;75.61;99279.46;109286;1274;138679;-65
2022/01/09 02:11:58;;;;;;;52.70;19.40;;;;;;;-2.87;76.21;99275.16;109419;1273;24151;-65
2022/01/09 02:14:26;;;;;;;19.30;8.60;;;;;;;-2.88;76.52;99266.66;109271;1274;138094;-65
2022/01/09 02:16:54;;;;;;;19.30;7.80;;;;;;;-2.91;76.90;99261.98;109400;1273;22440;-65
2022/01/09 02:19:22;;;;;;;15.20;7.90;;;;;;;-2.95;77.20;99258.75;109339;1274;22557;-65
2022/01/09 02:21:50;;;;;;;14.50;7.50;;;;;;;-2.98;77.29;99258.86;109325;1273;137409;-65
2022/01/09 02:24:22;;;;;;;13.10;7.30;;;;;;;-3.00;77.71;99253.98;109279;1274;22462;-65
2022/01/09 02:26:51;;;;;;;13.30;7.10;;;;;;;-3.01;77.97;99252.55;109257;1273;138316;-65
2022/01/09 02:29:19;;;;;;;12.30;6.70;;;;;;;-3.04;78.26;99247.94;109460;1273;22465;-65
2022/01/09 02:31:47;;;;;;;21.70;8.80;;;;;;;-3.06;78.53;99246.05;109403;1274;23664;-65
2022/01/09 02:34:15;;;;;;;13.60;7.10;;;;;;;-3.06;78.91;99247.74;109148;1273;138987;-66
2022/01/09 02:36:42;;;;;;;19.90;8.20;;;;;;;-3.04;79.29;99242.04;109396;1274;22422;-66
2022/01/09 02:39:10;;;;;;;23.10;10.30;;;;;;;-3.04;79.34;99244.16;109233;1274;138919;-66
2022/01/09 02:44:24;;;;;;;16.90;8.30;;;;;;;-3.02;79.60;99236.82;101465;1310;545193;-64
2022/01/09 02:47:01;;;;;;;17.80;8.50;;;;;;;-3.03;79.51;99239.17;103530;1287;25390;-64
2022/01/09 02:49:31;;;;;;;16.60;8.60;;;;;;;-3.04;79.84;99237.23;103753;1286;24324;-64
2022/01/09 02:52:04;;;;;;;18.50;8.50;;;;;;;-3.05;79.93;99231.71;103656;1286;137000;-64
2022/01/09 02:57:19;;;;;;;17.60;7.90;;;;;;;-3.13;80.32;99230.99;103568;1286;137805;-64
2022/01/09 02:59:47;;;;;;;20.80;9.10;;;;;;;-3.15;80.45;99226.48;103938;1284;24347;-64
2022/01/09 03:02:20;;;;;;;23.70;9.40;;;;;;;-3.18;80.73;99222.51;108220;1284;139232;-65
2022/01/09 03:04:48;;;;;;;18.20;8.80;;;;;;;-3.21;80.98;99214.67;108300;1285;22490;-65
2022/01/09 03:07:16;;;;;;;15.40;7.20;;;;;;;-3.21;81.17;99212.91;104484;1284;24247;-65
2022/01/09 03:09:44;;;;;;;15.00;8.20;;;;;;;-3.22;81.34;99211.95;103881;1286;137878;-65
2022/01/09 03:12:12;;;;;;;18.90;9.00;;;;;;;-3.23;81.49;99207.99;103884;1284;22617;-65
2022/01/09 03:14:40;;;;;;;17.30;8.30;;;;;;;-3.24;81.63;99209.16;103842;1286;136748;-65
2022/01/09 03:17:09;;;;;;;13.60;8.40;;;;;;;-3.25;81.80;99202.95;103972;1287;24246;-66
2022/01/09 03:19:37;;;;;;;13.70;7.60;;;;;;;-3.27;81.91;99203.65;103914;1284;22940;-67
2022/01/09 03:22:05;;;;;;;18.50;8.90;;;;;;;-3.29;81.94;99198.44;103807;1283;138118;-68
2022/01/09 03:24:33;;;;;;;16.50;8.10;;;;;;;-3.31;82.11;99195.29;108393;1285;23308;-67
2022/01/09 03:27:01;;;;;;;19.70;7.90;;;;;;;-3.33;82.07;99190.27;108166;1286;137957;-66
2022/01/09 03:29:29;;;;;;;19.50;8.50;;;;;;;-3.36;82.25;99190.88;108233;1286;22471;-66
2022/01/09 03:31:57;;;;;;;16.70;8.20;;;;;;;-3.39;82.39;99191.95;108238;1286;22487;-66
2022/01/09 03:34:26;;;;;;;20.90;10.70;;;;;;;-3.43;82.46;99189.74;108173;1286;139430;-66
2022/01/09 03:36:53;;;;;;;18.00;8.10;;;;;;;-3.43;82.72;99189.08;108161;1287;22513;-66
2022/01/09 03:39:21;;;;;;;15.00;8.00;;;;;;;-3.45;82.76;99185.23;108113;1286;138066;-66
2022/01/09 03:41:49;;;;;;;19.40;8.70;;;;;;;-3.45;83.10;99172.81;108301;1285;22464;-66
2022/01/09 03:44:17;;;;;;;18.50;8.60;;;;;;;-3.44;83.37;99170.48;108168;1286;138818;-66
2022/01/09 03:46:45;;;;;;;15.30;9.00;;;;;;;-3.44;83.39;99168.14;108256;1286;22467;-66
2022/01/09 03:49:12;;;;;;;17.40;8.60;;;;;;;-3.44;83.50;99166.77;108236;1285;22442;-66
2022/01/09 03:51:44;;;;;;;17.30;9.50;;;;;;;-3.43;83.59;99170.20;108160;1285;137591;-66
2022/01/09 03:54:11;;;;;;;17.20;9.30;;;;;;;-3.42;83.73;99167.47;108090;1286;22564;-66
2022/01/09 03:56:39;;;;;;;18.90;8.80;;;;;;;-3.41;83.65;99166.80;108125;1285;138214;-65
2022/01/09 03:59:07;;;;;;;14.80;9.00;;;;;;;-3.41;83.69;99166.07;108219;1286;22244;-66
2022/01/09 04:01:35;;;;;;;14.20;8.70;;;;;;;-3.41;83.77;99161.98;108222;1286;22683;-66
2022/01/09 04:04:04;;;;;;;18.20;8.10;;;;;;;-3.39;83.91;99159.86;107990;1286;138725;-66
2022/01/09 04:06:32;;;;;;;20.30;7.90;;;;;;;-3.39;83.88;99160.54;108234;1286;22391;-66
2022/01/09 04:09:07;;;;;;;15.40;7.50;;;;;;;-3.39;83.99;99154.64;108117;1286;138190;-66
2022/01/09 04:11:38;;;;;;;22.20;8.70;;;;;;;-3.38;83.89;99154.36;108249;1286;22537;-66
2022/01/09 04:14:06;;;;;;;29.20;16.70;;;;;;;-3.37;84.01;99150.20;108248;1286;22424;-66
2022/01/09 04:16:34;;;;;;;16.10;9.60;;;;;;;-3.35;84.01;99148.33;105469;1286;138419;-66
2022/01/09 04:19:02;;;;;;;37.80;16.90;;;;;;;-3.33;83.97;99147.09;103821;1286;23590;-65
2022/01/09 04:21:30;;;;;;;31.00;10.00;;;;;;;-3.32;83.88;99143.86;103818;1287;138142;-66
2022/01/09 04:23:58;;;;;;;48.10;16.80;;;;;;;-3.32;83.94;99139.27;108118;1286;23182;-66
2022/01/09 04:26:26;;;;;;;100.20;29.20;;;;;;;-3.31;84.07;99135.09;108188;1286;138610;-66
2022/01/09 04:28:54;;;;;;;78.70;28.90;;;;;;;-3.30;84.09;99132.11;108267;1285;22506;-67
2022/01/09 04:31:22;;;;;;;39.40;14.80;;;;;;;-3.32;84.07;99128.73;108158;1286;25145;-67
2022/01/09 04:33:50;;;;;;;99.50;31.40;;;;;;;-3.32;84.13;99127.70;108108;1286;137983;-67
2022/01/09 04:36:18;;;;;;;31.90;12.40;;;;;;;-3.31;84.05;99122.34;108201;1286;22387;-67
2022/01/09 04:38:45;;;;;;;99.50;32.70;;;;;;;-3.30;84.14;99123.92;108182;1286;138715;-66
2022/01/09 04:41:13;;;;;;;28.60;11.00;;;;;;;-3.29;84.26;99121.13;108292;1286;22459;-67
2022/01/09 04:43:43;;;;;;;275.90;105.30;;;;;;;-3.28;84.22;99117.52;108249;1286;23282;-67
2022/01/09 04:46:18;;;;;;;79.00;35.50;;;;;;;-3.30;84.31;99107.71;106352;1286;138839;-66
2022/01/09 04:48:47;;;;;;;73.70;33.90;;;;;;;-3.29;84.13;99105.38;104141;1287;25377;-65
2022/01/09 04:51:16;;;;;;;71.60;25.50;;;;;;;-3.31;84.26;99106.58;103795;1287;138584;-66
2022/01/09 04:53:43;;;;;;;37.70;15.70;;;;;;;-3.31;84.27;99103.83;103825;1287;25868;-66
2022/01/09 04:56:11;;;;;;;96.60;30.30;;;;;;;-3.32;84.32;99101.19;103776;1286;136998;-65
2022/01/09 04:58:39;;;;;;;31.80;12.80;;;;;;;-3.32;84.47;99098.67;103822;1286;22596;-65
2022/01/09 05:01:07;;;;;;;53.90;32.00;;;;;;;-3.34;84.38;99089.76;103836;1287;25056;-66
2022/01/09 05:03:35;;;;;;;29.30;14.40;;;;;;;-3.35;84.50;99083.53;108101;1286;137687;-67
2022/01/09 05:06:03;;;;;;;65.50;27.60;;;;;;;-3.36;84.56;99082.41;108248;1286;23602;-67
2022/01/09 05:08:31;;;;;;;88.00;31.50;;;;;;;-3.37;84.72;99080.42;108173;1287;139123;-67
2022/01/09 05:10:59;;;;;;;26.90;11.20;;;;;;;-3.39;84.79;99078.34;108249;1286;23349;-67
2022/01/09 05:13:27;;;;;;;22.50;10.30;;;;;;;-3.41;84.80;99076.58;108292;1286;22431;-66
2022/01/09 05:15:55;;;;;;;112.90;49.10;;;;;;;-3.40;84.97;99079.10;106746;1286;137249;-65
2022/01/09 05:18:23;;;;;;;52.30;23.10;;;;;;;-3.40;84.93;99080.54;103827;1287;25553;-66
2022/01/09 05:20:51;;;;;;;44.20;20.40;;;;;;;-3.40;85.16;99079.64;103754;1287;139080;-65
2022/01/09 05:23:19;;;;;;;154.70;45.20;;;;;;;-3.39;85.04;99077.80;103729;1288;22748;-66
2022/01/09 05:25:47;;;;;;;126.20;45.50;;;;;;;-3.39;84.99;99077.11;103766;1287;25571;-67
2022/01/09 05:28:14;;;;;;;165.40;44.70;;;;;;;-3.39;85.13;99072.11;103647;1287;138331;-67
2022/01/09 05:30:43;;;;;;;52.40;23.60;;;;;;;-3.40;85.08;99067.39;108155;1286;23651;-67
2022/01/09 05:33:11;;;;;;;75.90;38.10;;;;;;;-3.40;85.15;99060.13;108170;1287;138608;-67
2022/01/09 05:35:39;;;;;;;64.00;31.20;;;;;;;-3.41;85.27;99058.84;108011;1287;22467;-67
2022/01/09 05:38:06;;;;;;;121.10;43.70;;;;;;;-3.41;85.28;99057.07;108218;1286;22405;-67
2022/01/09 05:40:35;;;;;;;62.90;24.80;;;;;;;-3.42;85.34;99049.48;108092;1286;139012;-67
2022/01/09 05:43:03;;;;;;;24.20;13.60;;;;;;;-3.40;85.47;99052.71;108259;1286;22386;-67
2022/01/09 05:45:31;;;;;;;28.50;11.90;;;;;;;-3.39;85.50;99049.94;108064;1287;138615;-67
2022/01/09 05:48:00;;;;;;;25.70;11.00;;;;;;;-3.40;85.45;99056.07;108229;1285;22499;-67
2022/01/09 05:50:28;;;;;;;53.60;19.90;;;;;;;-3.38;85.52;99057.13;108158;1285;138614;-67
2022/01/09 05:52:56;;;;;;;23.10;9.10;;;;;;;-3.37;85.66;99049.82;108273;1287;22510;-68
2022/01/09 05:55:24;;;;;;;31.40;12.80;;;;;;;-3.32;85.62;99043.95;108240;1286;22600;-67
2022/01/09 05:57:52;;;;;;;53.20;22.80;;;;;;;-3.32;85.60;99046.33;108135;1286;140044;-67
2022/01/09 06:00:19;;;;;;;19.50;9.70;;;;;;;-3.31;85.58;99039.86;108255;1287;23590;-67
2022/01/09 06:02:47;;;;;;;24.70;10.90;;;;;;;-3.31;85.48;99031.66;108091;1286;137870;-67
2022/01/09 06:05:16;;;;;;;22.90;12.10;;;;;;;-3.31;85.62;99025.31;108289;1286;22479;-67
2022/01/09 06:07:43;;;;;;;88.60;30.60;;;;;;;-3.30;85.75;99027.17;108168;1287;22888;-67
2022/01/09 06:10:31;;;;;;;39.70;20.80;;;;;;;-3.29;85.68;99015.80;108153;1285;139238;-67
2022/01/09 06:12:59;;;;;;;31.30;15.60;;;;;;;-3.27;85.78;99015.79;108207;1286;23215;-68
2022/01/09 06:15:27;;;;;;;21.60;10.20;;;;;;;-3.28;85.66;99012.70;108124;1286;138521;-67
2022/01/09 06:17:55;;;;;;;27.50;14.90;;;;;;;-3.28;85.66;99018.93;108317;1286;22238;-67
2022/01/09 06:20:23;;;;;;;102.10;32.70;;;;;;;-3.27;85.76;99018.65;108131;1286;139814;-66
2022/01/09 06:22:51;;;;;;;94.90;28.80;;;;;;;-3.26;85.78;99012.48;108018;1287;22498;-66
2022/01/09 06:25:19;;;;;;;34.80;16.10;;;;;;;-3.25;85.93;99010.71;108230;1286;22477;-66
2022/01/09 06:27:47;;;;;;;31.70;13.10;;;;;;;-3.23;85.97;99006.39;108161;1286;139296;-67
2022/01/09 06:30:15;;;;;;;38.00;15.30;;;;;;;-3.21;85.90;99007.58;108267;1286;22515;-66
2022/01/09 06:32:43;;;;;;;21.80;9.90;;;;;;;-3.19;86.00;99004.77;108136;1286;139080;-66
2022/01/09 06:35:13;;;;;;;68.40;23.40;;;;;;;-3.18;85.96;99007.70;108261;1285;22634;-66
2022/01/09 06:37:41;;;;;;;79.50;29.50;;;;;;;-3.17;85.95;99005.65;108301;1286;22511;-66
2022/01/09 06:40:09;;;;;;;31.20;15.50;;;;;;;-3.18;85.98;99007.27;108121;1286;138960;-66
2022/01/09 06:42:38;;;;;;;66.30;41.10;;;;;;;-3.15;86.00;99011.04;108228;1286;22583;-66
2022/01/09 06:45:06;;;;;;;211.60;47.60;;;;;;;-3.14;86.04;99008.27;108209;1286;138624;-66
2022/01/09 06:47:34;;;;;;;52.90;19.70;;;;;;;-3.13;85.95;99008.65;108264;1287;22477;-66
2022/01/09 06:50:02;;;;;;;67.00;24.70;;;;;;;-3.11;86.13;99008.90;108897;1279;22567;-66
2022/01/09 06:52:31;;;;;;;26.90;11.50;;;;;;;-3.08;86.07;99004.84;108847;1279;139635;-66
2022/01/09 06:54:59;;;;;;;20.30;10.20;;;;;;;-3.08;85.98;99004.60;108958;1279;23323;-67
2022/01/09 06:57:27;;;;;;;30.50;12.50;;;;;;;-3.06;85.93;99007.13;108888;1278;139394;-67
2022/01/09 06:59:54;;;;;;;52.20;15.80;;;;;;;-3.04;86.03;99005.48;108952;1277;23482;-67
2022/01/09 07:02:22;;;;;;;83.00;25.30;;;;;;;-3.02;86.18;99005.29;108847;1277;139329;-67
2022/01/09 07:04:50;;;;;;;36.30;21.00;;;;;;;-3.00;86.05;98997.77;109025;1277;22486;-67
2022/01/09 07:07:18;;;;;;;23.80;12.50;;;;;;;-2.99;86.02;98992.75;108946;1279;22545;-66
2022/01/09 07:09:47;;;;;;;71.50;21.20;;;;;;;-2.97;85.93;98994.86;108879;1277;138191;-66
2022/01/09 07:12:22;;;;;;;44.50;15.80;;;;;;;-2.95;86.03;98997.04;109006;1278;22442;-65
2022/01/09 07:14:50;;;;;;;76.40;27.40;;;;;;;-2.93;85.93;98999.11;108855;1277;138760;-66
2022/01/09 07:17:18;;;;;;;28.00;14.40;;;;;;;-2.92;85.85;98995.64;108972;1279;23474;-66
2022/01/09 07:19:47;;;;;;;59.00;21.90;;;;;;;-2.92;85.91;98991.14;108935;1278;22432;-65
2022/01/09 07:22:14;;;;;;;38.40;16.50;;;;;;;-2.91;85.96;98981.23;108882;1277;138158;-62
2022/01/09 07:24:43;;;;;;;58.70;24.10;;;;;;;-2.89;85.94;98965.16;108865;1278;23713;-62
2022/01/09 07:27:13;;;;;;;51.20;27.40;;;;;;;-2.87;85.89;98961.37;108800;1277;139758;-62
2022/01/09 07:29:41;;;;;;;29.90;15.60;;;;;;;-2.88;85.68;98956.65;108932;1278;23332;-62
2022/01/09 07:32:08;;;;;;;30.30;15.40;;;;;;;-2.88;85.72;98957.55;109011;1277;22548;-62
2022/01/09 07:34:36;;;;;;;33.20;17.40;;;;;;;-2.89;85.89;98959.52;108745;1280;137183;-62
2022/01/09 07:37:05;;;;;;;37.80;16.70;;;;;;;-2.90;86.05;98956.07;108957;1278;22443;-62
2022/01/09 07:39:33;;;;;;;27.80;14.50;;;;;;;-2.91;86.25;98955.11;108809;1280;139081;-62
2022/01/09 07:42:01;;;;;;;75.00;29.20;;;;;;;-2.89;86.42;98952.71;108978;1277;23313;-62
2022/01/09 07:44:29;;;;;;;40.60;19.30;;;;;;;-2.89;86.43;98947.30;108817;1278;138219;-62
2022/01/09 07:46:56;;;;;;;54.80;31.00;;;;;;;-2.88;86.43;98946.06;108937;1278;22761;-62
2022/01/09 07:49:24;;;;;;;46.20;26.70;;;;;;;-2.87;86.49;98944.38;108930;1280;24329;-62
2022/01/09 07:51:52;;;;;;;33.40;17.60;;;;;;;-2.88;86.54;98947.23;108848;1280;140000;-62
2022/01/09 07:54:20;;;;;;;39.70;19.30;;;;;;;-2.86;86.53;98950.80;108929;1277;22559;-62
2022/01/09 07:56:48;;;;;;;43.40;21.30;;;;;;;-2.85;86.69;98944.92;108857;1280;139416;-62
2022/01/09 07:59:16;;;;;;;36.20;17.60;;;;;;;-2.81;86.69;98941.02;108967;1280;23290;-62
2022/01/09 08:01:49;;;;;;;32.10;15.50;;;;;;;-2.78;86.63;98943.74;108963;1277;24017;-62
2022/01/09 08:04:17;;;;;;;43.10;20.10;;;;;;;-2.75;86.67;98936.35;108860;1277;139046;-62
2022/01/09 08:06:45;;;;;;;37.50;16.60;;;;;;;-2.73;86.59;98930.77;109003;1280;22501;-62
2022/01/09 08:09:13;;;;;;;52.40;19.80;;;;;;;-2.73;86.26;98932.34;108838;1278;138162;-62
2022/01/09 08:11:41;;;;;;;48.00;22.00;;;;;;;-2.72;86.40;98928.70;108964;1280;22491;-62
2022/01/09 08:14:29;;;;;;;34.80;18.50;;;;;;;-2.71;86.41;98926.87;108900;1277;139921;-63
2022/01/09 08:16:56;;;;;;;155.40;53.70;;;;;;;-2.68;86.40;98920.38;108947;1278;24088;-63
2022/01/09 08:19:24;;;;;;;36.00;17.50;;;;;;;-2.67;86.35;98916.14;108962;1277;22466;-63
2022/01/09 08:21:52;;;;;;;41.50;20.10;;;;;;;-2.66;86.26;98919.19;108815;1277;138966;-63
2022/01/09 08:24:20;;;;;;;34.20;16.70;;;;;;;-2.63;86.35;98919.91;108962;1279;22681;-63
2022/01/09 08:26:48;;;;;;;31.60;16.20;;;;;;;-2.61;86.33;98916.42;108937;1277;139703;-63
2022/01/09 08:29:16;;;;;;;28.50;14.30;;;;;;;-2.57;86.37;98920.41;108787;1280;22461;-63
2022/01/09 08:31:45;;;;;;;25.40;14.30;;;;;;;-2.54;86.33;98919.67;108909;1278;22587;-63
2022/01/09 08:34:13;;;;;;;28.10;14.20;;;;;;;-2.51;86.24;98914.52;108827;1278;139440;-62
2022/01/09 08:36:40;;;;;;;25.80;13.80;;;;;;;-2.47;86.20;98914.76;108934;1279;22578;-62
2022/01/09 08:39:10;;;;;;;31.60;15.80;;;;;;;-2.44;86.15;98911.33;108775;1280;139991;-62
2022/01/09 08:41:38;;;;;;;45.90;21.90;;;;;;;-2.41;86.09;98907.54;108939;1278;22258;-62
2022/01/09 08:44:06;;;;;;;30.80;15.90;;;;;;;-2.37;86.10;98902.42;108913;1277;22859;-63
2022/01/09 08:46:35;;;;;;;27.20;13.60;;;;;;;-2.33;86.16;98900.52;108898;1278;139762;-62
2022/01/09 08:49:03;;;;;;;25.00;13.10;;;;;;;-2.28;86.18;98899.66;108857;1278;22479;-63
2022/01/09 08:51:31;;;;;;;32.40;16.60;;;;;;;-2.25;85.99;98890.99;108828;1279;139355;-63
2022/01/09 08:53:59;;;;;;;28.30;15.00;;;;;;;-2.22;86.00;98881.91;108953;1280;22470;-63
2022/01/09 08:56:27;;;;;;;25.70;15.30;;;;;;;-2.20;85.79;98875.20;108829;1279;138513;-63
2022/01/09 08:58:57;;;;;;;26.80;14.80;;;;;;;-2.20;85.70;98875.90;108840;1278;22473;-63
2022/01/09 09:01:43;;;;;;;27.70;13.90;;;;;;;-2.18;85.71;98871.94;108901;1279;22468;-64
2022/01/09 09:04:13;;;;;;;31.30;16.20;;;;;;;-2.17;85.71;98867.64;108851;1278;138766;-65
2022/01/09 09:06:41;;;;;;;34.30;18.00;;;;;;;-2.17;85.41;98861.63;108973;1277;22471;-64
2022/01/09 09:09:09;;;;;;;27.30;14.60;;;;;;;-2.18;85.43;98862.04;108854;1277;138621;-62
2022/01/09 09:11:37;;;;;;;32.40;15.40;;;;;;;-2.20;85.44;98867.40;108973;1277;22476;-63
2022/01/09 09:14:05;;;;;;;31.90;16.90;;;;;;;-2.19;85.55;98861.05;108968;1279;22288;-63
2022/01/09 09:16:33;;;;;;;28.90;15.50;;;;;;;-2.18;85.54;98854.19;108786;1279;140246;-63
2022/01/09 09:19:01;;;;;;;26.80;14.20;;;;;;;-2.16;85.67;98847.60;108927;1277;22428;-63
2022/01/09 09:21:29;;;;;;;27.90;14.60;;;;;;;-2.12;85.78;98844.51;108774;1278;139894;-64
2022/01/09 09:23:57;;;;;;;26.90;14.00;;;;;;;-2.09;85.83;98833.28;108920;1277;23896;-65
2022/01/09 09:26:25;;;;;;;28.90;14.50;;;;;;;-2.05;85.73;98831.19;108749;1277;138673;-63
2022/01/09 09:28:53;;;;;;;28.20;15.50;;;;;;;-2.02;85.65;98824.34;108983;1279;23377;-60
2022/01/09 09:31:21;;;;;;;27.50;14.40;;;;;;;-1.98;85.90;98817.30;109338;1274;22421;-63
2022/01/09 09:33:49;;;;;;;26.30;15.70;;;;;;;-1.94;85.86;98807.52;109138;1274;138859;-63
2022/01/09 09:36:17;;;;;;;30.60;14.40;;;;;;;-1.91;85.87;98803.73;109280;1274;23183;-63
2022/01/09 09:38:45;;;;;;;28.70;14.60;;;;;;;-1.87;85.76;98799.52;109129;1274;138512;-64
2022/01/09 09:41:12;;;;;;;41.90;18.80;;;;;;;-1.84;85.72;98798.55;109323;1274;22495;-64
2022/01/09 09:43:40;;;;;;;35.00;15.60;;;;;;;-1.80;85.89;98801.20;109334;1275;22466;-64
2022/01/09 09:46:08;;;;;;;34.60;17.20;;;;;;;-1.76;85.80;98807.31;109159;1274;138195;-64
2022/01/09 09:48:36;;;;;;;27.30;14.90;;;;;;;-1.71;85.77;98804.27;109180;1276;22381;-64
2022/01/09 09:51:04;;;;;;;29.70;14.90;;;;;;;-1.67;85.61;98801.06;108905;1274;139418;-64
2022/01/09 09:53:32;;;;;;;27.00;15.50;;;;;;;-1.66;85.47;98800.78;109246;1276;22461;-64
2022/01/09 09:56:00;;;;;;;34.20;17.30;;;;;;;-1.67;85.33;98801.44;109273;1275;22466;-63
2022/01/09 09:58:28;;;;;;;30.00;16.50;;;;;;;-1.69;85.26;98804.66;109210;1275;138547;-64
2022/01/09 10:00:57;;;;;;;28.60;15.80;;;;;;;-1.69;85.32;98801.83;109292;1275;22451;-64
2022/01/09 10:03:32;;;;;;;34.60;16.40;;;;;;;-1.70;85.38;98795.30;109218;1274;139458;-64
2022/01/09 10:06:06;;;;;;;35.90;17.70;;;;;;;-1.71;85.19;98797.05;107639;1275;24867;-64
2022/01/09 10:08:38;;;;;;;35.10;18.40;;;;;;;-1.73;85.26;98794.33;108758;1277;138512;-65
2022/01/09 10:11:16;;;;;;;40.00;17.70;;;;;;;-1.72;85.24;98794.34;109268;1274;23288;-65
2022/01/09 10:13:45;;;;;;;34.00;16.40;;;;;;;-1.72;85.25;98792.73;109137;1275;22616;-65
2022/01/09 10:16:14;;;;;;;35.60;18.20;;;;;;;-1.73;85.23;98784.31;109236;1276;140407;-64
2022/01/09 10:18:43;;;;;;;31.30;17.40;;;;;;;-1.70;85.29;98787.40;109320;1274;23115;-64
2022/01/09 10:21:14;;;;;;;40.60;18.50;;;;;;;-1.70;85.32;98782.64;109121;1274;138152;-66
2022/01/09 10:24:08;;;;;;;34.10;16.30;;;;;;;-1.67;85.16;98776.08;109274;1274;23588;-64
2022/01/09 10:26:39;;;;;;;37.60;16.90;;;;;;;-1.64;85.28;98774.51;109197;1275;138970;-64
2022/01/09 10:29:07;;;;;;;29.20;15.70;;;;;;;-1.63;85.24;98773.98;109242;1275;22563;-65
2022/01/09 10:31:46;;;;;;;29.90;16.70;;;;;;;-1.61;85.16;98776.42;109234;1275;23337;-65
2022/01/09 10:34:17;;;;;;;26.10;14.90;;;;;;;-1.59;85.07;98772.60;109179;1276;139467;-65
2022/01/09 10:36:48;;;;;;;27.80;15.60;;;;;;;-1.59;85.13;98763.48;109296;1275;22494;-65
2022/01/09 10:39:36;;;;;;;33.20;18.50;;;;;;;-1.59;85.10;98757.73;109120;1275;139149;-69
2022/01/09 10:42:04;;;;;;;29.50;16.90;;;;;;;-1.59;84.96;98757.23;109309;1274;23437;-68
2022/01/09 10:44:35;;;;;;;34.40;18.20;;;;;;;-1.59;84.89;98743.02;109165;1275;138392;-69
2022/01/09 10:47:03;;;;;;;31.00;19.20;;;;;;;-1.59;84.72;98738.50;109299;1275;23260;-68
2022/01/09 10:49:39;;;;;;;33.70;18.80;;;;;;;-1.60;84.60;98745.28;109318;1274;22273;-68
2022/01/09 10:52:25;;;;;;;32.50;16.80;;;;;;;-1.60;84.70;98747.25;109217;1274;138928;-69
2022/01/09 10:54:58;;;;;;;28.80;17.50;;;;;;;-1.59;84.86;98746.06;109299;1275;22562;-69
2022/01/09 10:57:27;;;;;;;35.20;18.20;;;;;;;-1.58;84.85;98746.79;109035;1277;139769;-68
2022/01/09 11:00:10;;;;;;;31.90;17.30;;;;;;;-1.60;84.74;98741.67;109094;1277;22555;-68
2022/01/09 11:02:39;;;;;;;29.60;15.80;;;;;;;-1.59;84.53;98737.51;109055;1277;138896;-69
2022/01/09 11:05:07;;;;;;;33.10;17.50;;;;;;;-1.60;84.46;98731.39;109351;1274;22496;-69
2022/01/09 11:07:36;;;;;;;30.50;17.20;;;;;;;-1.61;84.54;98736.15;109278;1274;23595;-68
2022/01/09 11:10:06;;;;;;;31.60;17.80;;;;;;;-1.60;84.52;98735.91;109172;1274;139884;-68
2022/01/09 11:12:45;;;;;;;32.00;17.90;;;;;;;-1.62;84.65;98730.36;109319;1274;22420;-69
2022/01/09 11:15:16;;;;;;;34.00;19.10;;;;;;;-1.62;84.76;98726.81;109023;1276;140059;-68
2022/01/09 11:17:45;;;;;;;39.10;18.80;;;;;;;-1.63;84.48;98724.59;109123;1275;22436;-68
2022/01/09 11:20:13;;;;;;;37.70;21.00;;;;;;;-1.63;84.64;98719.67;109303;1274;22458;-68
2022/01/09 11:22:42;;;;;;;37.20;18.80;;;;;;;-1.64;84.76;98717.85;109209;1274;137235;-68